LTACUACC

Guest
Details From LTAC - ESENBOGA
To UACC - Astana INTL
Flight Number -
Tags decoded
Created
Modified
Stats Distance 1,721 nm / 3,187 km
Max Altitude 0 ft / 0 m
Waypoints 2
Social Downloads 0
Likes 0
Share VATSIM

Download

Looking for another format? Having issues loading an existing format? Contact us
Advertisement - Login to hide

Notes

Requested: LTAC UACC

Route

LTAC UACC

ID Type Via Altitude Latitude Longitude Leg Dist Tot Dist Heading (true) Name
O LTAC APT - 0 ft / 0 m 40.12828˚ 32.99540˚ - 0 nm - ESENBOGA
O UACC APT - 0 ft / 0 m 51.02218˚ 71.46706˚ 1720 nm 1720 nm 55° / 83° Astana INTL

Altitude Profile

Advertisement - Login to hide

Weather


0- 5 10 15 20 25 30 35+ Temperature / ° C

Clouds and Precipitation
Forecast for 2017-12-12 00:00 UTC. Updated 14 minutes ago

Ground ~20,000 ft ~40,000 ft Winds

LTAC

Details ICAO LTAC (ESB)
Name ESENBOGA
Region Turkey
Timezone Europe/Istanbul (UTC+3.0)
Stats Elevation 3,125 ft / 953 m (AMSL)
Location 40.128285° 32.995403°
Runways 2
Magnetic Variation 5.713° E

METAR

LTAC 112320Z 34002KT 4100 BR NSC M02/M03 Q1026 BECMG 2500 BKN010

Decode

TAF

Not found

Departure Runways

ID Width Length Bearing (true) Bearing (mag) Surface Threshold Offset Overrun Length
03L 148 ft / 45 m 12,334 ft / 3,760 m 36.19° 30.48° Asphalt 1,148 ft / 350 m 200 ft / 61 m
03R 197 ft / 60 m 12,258 ft / 3,736 m 35.29° 29.58° Asphalt 0 ft / 0 m 200 ft / 61 m
21L 197 ft / 60 m 12,258 ft / 3,736 m 215.31° 209.60° Asphalt 0 ft / 0 m 200 ft / 61 m
21R 148 ft / 45 m 12,334 ft / 3,760 m 216.21° 210.50° Asphalt 0 ft / 0 m 200 ft / 61 m

UACC

Details ICAO UACC (TSE)
Name Astana INTL
Region Kazakhstan and Kyrgyzstan
Timezone Asia/Almaty (UTC+6.0)
Stats Elevation 1,165 ft / 355 m (AMSL)
Location 51.022180° 71.467062°
Runways 1
Magnetic Variation 9.843° E

METAR

UACC 112330Z 27003MPS 9999 -SN FEW012 OVC032 M17/M18 Q1028 R22/451050 NOSIG RMK QFE739/0985

Decode

TAF

TAF UACC 111700Z 1118/1218 28006MPS 9999 -SN SCT007 BKN015 TXM12/1209Z TNM18/1201Z TEMPO 1118/1204 3000 IC BR SCT005 BKN008 BECMG 1204/1206 34005MPS NSW BECMG 1209/1211 03005MPS

Decode

Destination Runways

ID Width Length Bearing (true) Bearing (mag) Surface Threshold Offset Overrun Length
04 148 ft / 45 m 11,467 ft / 3,495 m 44.45° 34.61° Asphalt 0 ft / 0 m 0 ft / 0 m
22 148 ft / 45 m 11,467 ft / 3,495 m 224.48° 214.64° Asphalt 0 ft / 0 m 0 ft / 0 m

Approach Navaids

Runway Type Ident Frequency Range Bearing (true) Bearing (mag) Slope Elevation
04 Localiser IMO 109.50 MHz 18 nm / 33 km 44.29° 34.45° - 1,165 ft / 355 m (AMSL)
04 Glidescope IMO 109.50 MHz 10 nm / 19 km 44.46° 34.62° 3.00° 1,165 ft / 355 m (AMSL)
22 Localiser IAK 111.70 MHz 18 nm / 33 km 224.56° 214.72° - 1,165 ft / 355 m (AMSL)
22 Glidescope IAK 111.70 MHz 10 nm / 19 km 224.46° 214.62° 3.00° 1,165 ft / 355 m (AMSL)

Popular Alternatives